Göttingen, Allemagne

23:27 CET le 26 Mars 2015 (GMT +0100)
göttingen,de | | Change Station
CLOSE
Current Station
Stations météorologiques personnelles
Location: Göttingen, NIEDERSACHSEN
Altitude: 741 ft
Stations météo à proximité

Alt. 741 ft 51.53 °N, 9.86 °E | Updated 4 seconds ago

Mostly Cloudy
Nuageux
40.5 ° F
Paraît 40 ° F
N
1.3
Vent Variable Vent de ESE
Gusts 2.5 mph

Aujourd'hui
Haut(e) -- | Bas -- ° F
--% Risque de précip.
Hier
Haut(e) -- | Bas -- ° F
Precip. -- pouce
6:10 AM 6:42 PM
Lune montante, 46% visible
Pression 29.77 pouce
Visibilité 6.2 Miles terrestres
Nuages Nuageux 1800 ft
Refroidissement éolien 40 ° F
Point de rosée 36 ° F
Humidité 83%
Précipitations pouce
Profondeur de la couche neigeuse Non disponible.
UV 0.0 sur 12
Pollen Non disponible.
Qualité de l'air Non disponible.
Flu Activity Non disponible.
METAR ETHF 262220Z 22006KT 9999 BKN018 05/02 Q1008 WHT

More Conditions Fewer Conditions

Pression 29.77 pouce
Visibilité 6.2 Miles terrestres
Nuages Nuageux 1800 ft
Refroidissement éolien 40 ° F
Point de rosée 36 ° F
Humidité 83%
Précipitations pouce
Profondeur de la couche neigeuse Non disponible.
UV 0.0 sur 12
Pollen Non disponible.
Qualité de l'air Non disponible.
Flu Activity Non disponible.
METAR ETHF 262220Z 22006KT 9999 BKN018 05/02 Q1008 WHT

More Conditions Fewer Conditions

10-Day Weather Forecast

Almanac

Astronomie

Mar. 26, 2015 Lever Coucher
Temps réel
Crépuscule civil
Crépuscule nautique
Crépuscule astronomique
Lune
Durée de lumière visible
Longueur du jour
Tomorrow will be .
, % of the Moon is Illuminated

Extrêmes aujourd'hui

Country Highs Country Lows

Community

WunderPhotos

Upload Photos

1,808,627 Photos téléchargées !

WunderBlogs® & News

Nearby

Qualité de l'air

  Qualité de l'air Indice de la qualité de l'air Polluant
Not available.

Épaisseur de neige

Station Depth Altitude

Activité sismique

Ville Distance Mag. Time & Date
Minimum magnitude displayed is 2.5.

Températures des eaux côtières

Lieu Température

Stations

Stations météo à proximité

Emplacement de la station Température Refroidissement éolien Point de rosée Humidité Vent Precip. Alt. Mise à jour Type